Time;durP1;ratioP1;P1;durP2;ratioP2;P2;SDS_P1;SDS_P2;PMS_P1;PMS_P2;Temp;Humidity;BMP_temperature;BMP_pressure;BME280_temperature;BME280_humidity;BME280_pressure;Samples;Min_cycle;Max_cycle;Signal;HPM_P1;HPM_P2
2021/08/18 00:00:50;;;;;;;;;;;15.10;99.90;;;13.83;100.00;101220.72;2569106;30;136823;-41
2021/08/18 00:03:18;;;;;;;10.05;6.50;;;15.10;99.90;;;13.81;100.00;101226.44;2568709;30;137970;-41
2021/08/18 00:05:46;;;;;;;8.80;5.70;;;15.10;99.90;;;13.81;100.00;101219.03;2568811;30;137584;-40
2021/08/18 00:08:14;;;;;;;10.88;6.43;;;15.20;99.90;;;13.84;100.00;101226.00;2567558;30;138376;-41
2021/08/18 00:10:45;;;;;;;9.43;6.35;;;15.10;99.90;;;13.82;100.00;101225.38;2568736;30;137635;-40
2021/08/18 00:13:12;;;;;;;9.43;5.70;;;15.10;99.90;;;13.80;100.00;101227.50;2567728;30;138459;-42
2021/08/18 00:15:40;;;;;;;;;;;15.10;99.90;;;13.83;100.00;101217.97;2567886;30;137757;-40
2021/08/18 00:18:09;;;;;;;7.93;5.32;;;15.10;99.90;;;13.81;100.00;101220.97;2566402;30;138953;-40
2021/08/18 00:20:37;;;;;;;8.25;5.18;;;15.10;99.90;;;13.81;100.00;101232.75;2567317;30;138548;-40
2021/08/18 00:23:06;;;;;;;7.93;5.10;;;15.10;99.90;;;13.80;100.00;101224.75;2568765;30;137508;-40
2021/08/18 00:25:34;;;;;;;9.40;6.07;;;15.10;99.90;;;13.77;100.00;101223.31;2568219;30;137219;-40
2021/08/18 00:28:02;;;;;;;8.80;5.95;;;15.10;99.90;;;13.79;100.00;101220.31;2566350;30;138680;-40
2021/08/18 00:30:30;;;;;;;9.57;5.80;;;15.10;99.90;;;13.84;100.00;101219.66;2566339;30;136917;-40
2021/08/18 00:32:57;;;;;;;8.48;5.22;;;15.10;99.90;;;13.80;100.00;101220.09;2567787;30;138264;-40
2021/08/18 00:35:25;;;;;;;8.82;5.78;;;15.10;99.90;;;13.82;100.00;101214.41;2568411;30;138317;-40
2021/08/18 00:37:53;;;;;;;10.05;6.07;;;15.20;99.90;;;13.81;100.00;101219.03;2568062;30;137183;-40
2021/08/18 00:40:24;;;;;;;8.85;5.88;;;15.10;99.90;;;13.83;100.00;101216.09;2567565;30;137333;-40
2021/08/18 00:42:53;;;;;;;8.05;5.47;;;15.10;99.90;;;13.84;100.00;101217.75;2568582;30;138587;-40
2021/08/18 00:45:21;;;;;;;9.73;6.60;;;15.10;99.90;;;13.88;100.00;101209.91;2568354;30;137601;-40
2021/08/18 00:47:52;;;;;;;9.20;6.40;;;15.20;99.90;;;13.85;100.00;101211.22;2567904;30;138329;-40
2021/08/18 00:50:29;;;;;;;10.85;6.85;;;15.20;99.90;;;13.87;100.00;101209.09;2565226;30;137638;-41
2021/08/18 00:52:57;;;;;;;10.95;6.78;;;15.20;99.90;;;13.84;100.00;101214.16;2566563;30;137492;-40
2021/08/18 00:55:26;;;;;;;8.80;6.05;;;15.20;99.90;;;13.82;100.00;101214.41;2568458;30;136865;-40
2021/08/18 00:57:57;;;;;;;11.57;7.03;;;15.20;99.90;;;13.80;100.00;101211.06;2567845;30;138925;-42
2021/08/18 01:00:28;;;;;;;10.75;6.85;;;15.10;99.90;;;13.80;100.00;101211.06;2567699;30;137840;-40
2021/08/18 01:02:57;;;;;;;11.30;6.95;;;15.20;99.90;;;13.80;100.00;101209.13;2567484;30;137725;-40
2021/08/18 01:05:29;;;;;;;13.18;8.02;;;15.10;99.90;;;13.87;100.00;101208.22;2568703;30;137299;-40
2021/08/18 01:08:01;;;;;;;11.77;8.00;;;15.20;99.90;;;13.82;100.00;101203.44;2567958;30;139223;-42
2021/08/18 01:10:35;;;;;;;11.95;7.57;;;15.20;99.90;;;13.82;100.00;101206.19;2568305;30;136898;-40
2021/08/18 01:13:05;;;;;;;12.85;7.20;;;15.20;99.90;;;13.87;100.00;101217.31;2567613;30;138998;-41
2021/08/18 01:15:34;;;;;;;14.63;8.23;;;15.20;99.90;;;13.85;100.00;101211.22;2567984;30;137380;-40
2021/08/18 01:18:06;;;;;;;14.43;8.80;;;15.20;99.90;;;13.87;100.00;101210.97;2567126;30;138607;-40
2021/08/18 01:20:39;;;;;;;14.60;9.13;;;15.20;99.90;;;13.86;100.00;101220.25;2569146;30;137659;-40
2021/08/18 01:23:11;;;;;;;13.55;8.75;;;15.20;99.90;;;13.89;100.00;101211.59;2567404;30;138256;-40
2021/08/18 01:25:42;;;;;;;14.90;9.60;;;15.20;99.90;;;13.86;100.00;101218.38;2566544;30;137731;-40
2021/08/18 01:28:11;;;;;;;15.15;9.30;;;15.20;99.90;;;13.89;100.00;101212.44;2567365;30;138309;-40
2021/08/18 01:30:40;;;;;;;15.63;10.00;;;15.20;99.90;;;13.85;100.00;101213.09;2565774;30;137203;-40
2021/08/18 01:33:13;;;;;;;13.27;9.05;;;15.20;99.90;;;13.83;100.00;101218.81;2567288;30;137274;-40
2021/08/18 01:35:46;;;;;;;14.48;9.18;;;15.20;99.90;;;13.89;100.00;101226.16;2566160;30;137484;-40
2021/08/18 01:38:17;;;;;;;14.68;10.20;;;15.20;99.90;;;13.86;100.00;101223.84;2566571;30;138426;-40
2021/08/18 01:40:51;;;;;;;13.55;9.18;;;15.20;99.90;;;13.82;100.00;101214.41;2566702;30;137106;-43
2021/08/18 01:43:21;;;;;;;14.63;9.57;;;15.20;99.90;;;13.90;100.00;101222.34;2566708;30;137151;-40
2021/08/18 01:45:51;;;;;;;16.15;9.88;;;15.20;99.90;;;13.92;100.00;101220.22;2567455;30;137410;-41
2021/08/18 01:48:24;;;;;;;16.77;10.35;;;15.20;99.90;;;13.90;100.00;101224.22;2566339;30;138191;-40
2021/08/18 01:50:55;;;;;;;16.70;9.43;;;15.20;99.90;;;13.90;100.00;101225.09;2567457;30;137306;-40
2021/08/18 01:53:26;;;;;;;16.58;10.13;;;15.20;99.90;;;13.90;100.00;101224.22;2567881;30;138283;-41
2021/08/18 01:56:03;;;;;;;16.92;9.95;;;15.20;99.90;;;13.85;100.00;101221.31;2569289;30;137714;-40
2021/08/18 01:58:35;;;;;;;15.27;9.68;;;15.20;99.90;;;13.86;100.00;101215.63;2567517;30;137383;-42
2021/08/18 02:01:07;;;;;;;14.52;9.18;;;15.20;99.90;;;13.81;100.00;101227.25;2567786;30;137082;-40
2021/08/18 02:03:35;;;;;;;14.93;9.45;;;15.20;99.90;;;13.85;100.00;101227.66;2568190;30;137377;-40
2021/08/18 02:06:03;;;;;;;14.07;9.02;;;15.10;99.90;;;13.81;100.00;101223.69;2566785;30;137736;-40
2021/08/18 02:08:31;;;;;;;15.70;9.43;;;15.20;99.90;;;13.81;100.00;101227.25;2567600;30;139197;-40
2021/08/18 02:10:59;;;;;;;14.10;9.13;;;15.10;99.90;;;13.80;100.00;101227.50;2565611;30;137517;-40
2021/08/18 02:13:27;;;;;;;;;;;15.20;99.90;;;13.81;100.00;101226.44;2569040;30;137316;-40
2021/08/18 02:15:55;;;;;;;14.15;8.88;;;15.10;99.90;;;13.85;100.00;101227.66;2567572;30;136898;-40
2021/08/18 02:18:23;;;;;;;13.80;8.93;;;15.20;99.90;;;13.82;100.00;101225.38;2567479;30;137403;-40
2021/08/18 02:20:50;;;;;;;14.73;9.18;;;15.20;99.90;;;13.83;100.00;101238.03;2568588;30;137523;-45
2021/08/18 02:23:18;;;;;;;13.05;8.50;;;15.20;99.90;;;13.81;100.00;101231.94;2567733;30;136830;-40
2021/08/18 02:25:46;;;;;;;15.20;8.65;;;15.20;99.90;;;13.87;100.00;101231.03;2567374;30;136668;-40
2021/08/18 02:28:13;;;;;;;12.85;8.35;;;15.20;99.90;;;13.83;100.00;101232.53;2567746;30;139002;-40
2021/08/18 02:30:41;;;;;;;13.88;9.13;;;15.20;99.90;;;13.81;100.00;101229.19;2567863;30;137456;-41
2021/08/18 02:33:10;;;;;;;13.27;8.82;;;15.10;99.90;;;13.83;100.00;101229.78;2567120;30;139343;-41
2021/08/18 02:35:38;;;;;;;13.40;8.10;;;15.20;99.90;;;13.84;100.00;101233.38;2567960;30;137601;-40
2021/08/18 02:38:07;;;;;;;13.07;8.45;;;15.20;99.90;;;13.83;100.00;101228.94;2566460;30;137692;-40
2021/08/18 02:40:36;;;;;;;11.25;7.97;;;15.20;99.90;;;13.85;100.00;101241.38;2567708;30;136827;-41
2021/08/18 02:43:04;;;;;;;13.23;8.20;;;15.20;99.90;;;13.89;100.00;101230.78;2575552;30;137592;-39
2021/08/18 02:45:32;;;;;;;12.02;7.97;;;15.20;99.90;;;13.84;100.00;101223.25;2567733;30;137229;-39
2021/08/18 02:48:01;;;;;;;13.45;8.35;;;15.20;99.90;;;13.83;100.00;101226.19;2570884;30;137142;-39
2021/08/18 02:50:31;;;;;;;14.57;9.82;;;15.20;99.90;;;13.82;100.00;101222.63;2566835;30;137028;-37
2021/08/18 02:52:59;;;;;;;14.43;8.32;;;15.20;99.90;;;13.83;100.00;101223.47;2569190;30;138564;-38
2021/08/18 02:55:28;;;;;;;14.32;9.73;;;15.10;99.90;;;13.77;100.00;101217.81;2568643;30;137706;-39
2021/08/18 02:57:57;;;;;;;14.00;8.80;;;15.10;99.90;;;13.81;100.00;101220.97;2567607;30;137148;-38
2021/08/18 03:00:25;;;;;;;14.43;9.05;;;15.10;99.90;;;13.80;100.00;101222.03;2571621;30;136974;-39
2021/08/18 03:02:53;;;;;;;16.35;9.32;;;15.10;99.90;;;13.79;100.00;101225.81;2569848;30;138203;-39
2021/08/18 03:05:20;;;;;;;16.73;10.07;;;15.10;99.90;;;13.83;100.00;101212.50;2569065;30;136948;-39
2021/08/18 03:07:48;;;;;;;15.82;9.48;;;15.20;99.90;;;13.80;100.00;101211.88;2567709;30;138446;-38
2021/08/18 03:10:15;;;;;;;14.50;8.95;;;15.10;99.90;;;13.83;100.00;101216.09;2569845;30;136733;-39
2021/08/18 03:12:43;;;;;;;15.80;10.25;;;15.20;99.90;;;13.81;100.00;101212.72;2570722;30;138798;-39
2021/08/18 03:15:11;;;;;;;15.88;9.52;;;15.10;99.90;;;13.77;100.00;101220.56;2568872;30;137189;-38
2021/08/18 03:17:39;;;;;;;14.00;9.30;;;15.10;99.90;;;13.77;100.00;101223.31;2569214;30;137908;-38
2021/08/18 03:20:07;;;;;;;15.98;10.10;;;15.10;99.90;;;13.80;100.00;101224.75;2568970;30;137445;-38
2021/08/18 03:22:35;;;;;;;15.15;9.85;;;15.10;99.90;;;13.77;100.00;101231.53;2571846;30;137663;-40
2021/08/18 03:25:04;;;;;;;;;;;15.10;99.90;;;13.78;100.00;101229.59;2570082;30;138179;-39
2021/08/18 03:27:32;;;;;;;16.13;10.02;;;15.10;99.90;;;13.76;100.00;101231.72;2571281;30;137880;-39
2021/08/18 03:30:00;;;;;;;16.98;10.85;;;15.10;99.90;;;13.76;100.00;101218.03;2570116;30;136946;-38
2021/08/18 03:32:27;;;;;;;15.85;10.45;;;15.10;99.90;;;13.76;100.00;101224.38;2567255;30;137199;-39
2021/08/18 03:34:55;;;;;;;16.33;11.02;;;15.10;99.90;;;13.78;100.00;101218.63;2570137;30;137463;-39
2021/08/18 03:37:22;;;;;;;18.42;11.02;;;15.10;99.90;;;13.79;100.00;101223.91;2569223;30;138254;-38
2021/08/18 03:39:50;;;;;;;19.20;12.23;;;15.10;99.90;;;13.84;100.00;101219.66;2569729;30;138082;-38
2021/08/18 03:42:17;;;;;;;17.58;11.70;;;15.20;99.90;;;13.88;100.00;101220.88;2571719;30;138474;-39
2021/08/18 03:44:45;;;;;;;19.85;12.35;;;15.20;99.90;;;13.87;100.00;101220.06;2567545;30;137326;-39
2021/08/18 03:47:13;;;;;;;18.00;11.77;;;15.20;99.90;;;13.87;100.00;101231.03;2569887;30;138469;-38
2021/08/18 03:49:40;;;;;;;19.38;12.75;;;15.20;99.90;;;13.84;100.00;101217.75;2569357;30;137198;-39
2021/08/18 03:52:08;;;;;;;17.27;11.32;;;15.20;99.90;;;13.84;100.00;101222.41;2569281;30;137534;-41
2021/08/18 03:54:35;;;;;;;20.45;12.20;;;15.20;99.90;;;13.86;100.00;101229.34;2569511;30;138353;-38
2021/08/18 03:57:03;;;;;;;19.77;12.45;;;15.20;99.90;;;13.87;100.00;101222.78;2570463;30;138185;-39
2021/08/18 03:59:31;;;;;;;19.05;12.52;;;15.20;99.90;;;13.90;100.00;101221.47;2569992;30;136951;-38
2021/08/18 04:01:58;;;;;;;18.95;11.68;;;15.20;99.90;;;13.88;100.00;101221.72;2569880;30;138208;-38
2021/08/18 04:04:26;;;;;;;18.70;12.30;;;15.20;99.90;;;13.95;100.00;101227.16;2571006;30;136969;-38
2021/08/18 04:06:53;;;;;;;22.77;12.07;;;15.30;99.90;;;13.98;100.00;101220.38;2570538;30;136821;-39
2021/08/18 04:09:21;;;;;;;20.77;12.48;;;15.30;99.90;;;13.98;100.00;101223.09;2570542;30;136932;-39
2021/08/18 04:11:48;;;;;;;21.42;12.45;;;15.30;99.90;;;13.98;100.00;101221.22;2570290;30;138297;-38
2021/08/18 04:14:16;;;;;;;21.08;13.60;;;15.30;99.90;;;13.98;100.00;101214.88;2570467;30;136914;-39
2021/08/18 04:16:43;;;;;;;22.35;13.07;;;15.30;99.90;;;14.00;100.00;101221.84;2568326;30;139047;-38
2021/08/18 04:19:11;;;;;;;21.63;13.25;;;15.30;99.90;;;14.02;100.00;101216.09;2570947;30;137596;-38
2021/08/18 04:21:38;;;;;;;18.80;11.63;;;15.30;99.90;;;13.99;100.00;101222.91;2568192;30;138284;-38
2021/08/18 04:24:06;;;;;;;19.00;11.88;;;15.30;99.90;;;13.99;100.00;101222.03;2570403;30;137663;-38
2021/08/18 04:26:33;;;;;;;20.35;13.18;;;15.30;99.90;;;13.99;100.00;101222.91;2569183;30;137509;-38
2021/08/18 04:29:01;;;;;;;19.10;11.77;;;15.30;99.90;;;13.98;100.00;101220.38;2567800;30;138255;-38
2021/08/18 04:31:29;;;;;;;19.38;11.98;;;15.30;99.90;;;13.99;100.00;101222.91;2570973;30;138525;-38
2021/08/18 04:33:56;;;;;;;19.52;12.35;;;15.30;99.90;;;14.05;100.00;101221.13;2569627;30;137439;-38
2021/08/18 04:36:24;;;;;;;19.83;11.98;;;15.30;99.90;;;14.00;100.00;101229.22;2571776;30;138123;-38
2021/08/18 04:38:51;;;;;;;19.15;12.02;;;15.30;99.90;;;14.07;100.00;101222.59;2569361;30;137935;-38
2021/08/18 04:41:19;;;;;;;18.90;11.05;;;15.30;99.90;;;14.09;100.00;101223.22;2569880;30;138245;-38
2021/08/18 04:43:46;;;;;;;19.98;10.95;;;15.40;99.90;;;14.05;100.00;101232.09;2568627;30;138511;-38
2021/08/18 04:46:14;;;;;;;20.45;12.52;;;15.40;99.90;;;14.11;100.00;101214.75;2567480;30;139219;-38
2021/08/18 04:48:41;;;;;;;20.90;12.70;;;15.40;99.90;;;14.12;100.00;101221.94;2569495;30;138274;-38
2021/08/18 04:51:09;;;;;;;22.63;12.18;;;15.40;99.90;;;14.07;100.00;101233.56;2569586;30;138023;-38
2021/08/18 04:53:36;;;;;;;19.80;12.60;;;15.40;99.90;;;14.08;100.00;101235.25;2570161;30;137532;-39
2021/08/18 04:56:04;;;;;;;22.27;12.98;;;15.40;99.90;;;14.06;100.00;101218.19;2570666;30;138642;-39
2021/08/18 04:58:32;;;;;;;20.58;12.23;;;15.40;99.90;;;14.10;100.00;101232.28;2571042;30;137080;-38
2021/08/18 05:00:59;;;;;;;21.10;12.93;;;15.40;99.90;;;14.09;100.00;101230.63;2567875;30;139247;-38
2021/08/18 05:03:27;;;;;;;;;;;15.40;99.90;;;14.14;100.00;101233.50;2567675;30;136948;-38
2021/08/18 05:05:55;;;;;;;19.33;11.70;;;15.40;99.90;;;14.10;100.00;101222.13;2567346;30;139174;-38
2021/08/18 05:08:22;;;;;;;20.35;12.95;;;15.40;99.90;;;14.16;100.00;101228.63;2568356;30;138463;-39
2021/08/18 05:10:50;;;;;;;22.40;12.88;;;15.40;99.90;;;14.19;100.00;101227.31;2566936;30;139087;-39
2021/08/18 05:13:17;;;;;;;22.67;13.48;;;15.50;99.90;;;14.19;100.00;101228.19;2569940;30;137846;-39
2021/08/18 05:15:45;;;;;;;21.63;13.65;;;15.50;99.90;;;14.21;100.00;101230.72;2568699;30;137465;-39
2021/08/18 05:18:12;;;;;;;21.05;13.23;;;15.50;99.90;;;14.30;100.00;101225.72;2569997;30;137652;-39
2021/08/18 05:20:40;;;;;;;19.90;12.45;;;15.50;99.90;;;14.31;100.00;101220.03;2569531;30;137470;-39
2021/08/18 05:23:08;;;;;;;21.58;13.43;;;15.60;99.90;;;14.36;100.00;101213.88;2571339;30;137479;-39
2021/08/18 05:25:35;;;;;;;22.83;13.65;;;15.60;99.90;;;14.39;100.00;101205.19;2569513;30;138431;-38
2021/08/18 05:28:04;;;;;;;21.40;12.82;;;15.70;99.90;;;14.48;100.00;101213.94;2568288;30;137830;-38
2021/08/18 05:30:32;;;;;;;21.70;13.68;;;15.70;99.90;;;14.50;100.00;101226.34;2568025;30;138282;-39
2021/08/18 05:33:00;;;;;;;24.33;14.35;;;15.80;99.90;;;14.56;100.00;101229.25;2567419;30;137495;-39
2021/08/18 05:35:27;;;;;;;23.35;13.82;;;15.80;99.90;;;14.57;100.00;101223.53;2569239;30;138157;-39
2021/08/18 05:37:55;;;;;;;20.65;12.95;;;15.80;99.90;;;14.58;100.00;101221.63;2569451;30;137716;-39
2021/08/18 05:40:22;;;;;;;22.35;13.77;;;15.80;99.90;;;14.61;100.00;101224.75;2569593;30;138469;-38
2021/08/18 05:42:50;;;;;;;22.45;13.65;;;15.80;99.90;;;14.64;100.00;101227.03;2570113;30;137789;-38
2021/08/18 05:45:18;;;;;;;24.00;14.15;;;15.90;99.90;;;14.74;100.00;101226.53;2569792;30;139087;-38
2021/08/18 05:47:45;;;;;;;23.25;13.48;;;15.90;99.90;;;14.73;100.00;101232.28;2569781;30;137401;-39
2021/08/18 05:50:13;;;;;;;21.95;13.57;;;16.00;99.90;;;14.74;100.00;101232.03;2570225;30;137536;-39
2021/08/18 05:52:41;;;;;;;25.10;14.32;;;16.00;99.90;;;14.74;100.00;101229.28;2568257;30;136906;-38
2021/08/18 05:55:09;;;;;;;23.38;13.75;;;16.00;99.90;;;14.74;100.00;101233.94;2569567;30;139242;-39
2021/08/18 05:57:37;;;;;;;24.17;14.27;;;16.00;99.90;;;14.74;100.00;101234.75;2566611;30;137935;-39
2021/08/18 06:00:06;;;;;;;22.92;13.80;;;16.00;99.90;;;14.73;100.00;101237.75;2569065;30;139088;-39
2021/08/18 06:02:35;;;;;;;22.63;13.98;;;16.00;99.90;;;14.71;100.00;101229.75;2569725;30;137047;-39
2021/08/18 06:05:04;;;;;;;21.45;13.75;;;16.00;99.90;;;14.81;100.00;101231.94;2570527;30;137858;-39
2021/08/18 06:07:31;;;;;;;24.27;14.85;;;16.00;99.90;;;14.84;100.00;101236.13;2569101;30;137506;-38
2021/08/18 06:09:59;;;;;;;25.75;14.80;;;16.00;99.90;;;14.86;100.00;101237.56;2569139;30;139397;-39
2021/08/18 06:12:26;;;;;;;24.92;14.32;;;16.10;99.90;;;14.91;100.00;101234.16;2569340;30;136658;-38
2021/08/18 06:14:54;;;;;;;22.58;13.68;;;16.10;99.90;;;14.95;100.00;101229.84;2570832;30;139324;-38
2021/08/18 06:17:21;;;;;;;23.25;14.48;;;16.20;99.90;;;14.96;100.00;101234.28;2567984;30;137101;-38
2021/08/18 06:19:49;;;;;;;25.33;14.52;;;16.20;99.90;;;14.95;100.00;101240.84;2567495;30;137513;-39
2021/08/18 06:22:16;;;;;;;23.35;13.82;;;16.20;99.90;;;14.95;100.00;101240.84;2568574;30;136905;-38
2021/08/18 06:24:49;;;;;;;25.23;14.90;;;16.20;99.90;;;15.00;100.00;101249.22;2567260;30;138521;-40
2021/08/18 06:27:17;;;;;;;25.85;15.65;;;16.20;99.90;;;15.05;100.00;101241.13;2568894;30;137959;-39
2021/08/18 06:29:45;;;;;;;25.25;15.38;;;16.30;99.90;;;15.08;100.00;101229.66;2570843;30;137515;-39
2021/08/18 06:32:12;;;;;;;23.75;14.73;;;16.30;99.90;;;15.07;100.00;101240.91;2569800;30;136699;-38
2021/08/18 06:34:40;;;;;;;26.63;15.65;;;16.30;99.90;;;15.14;100.00;101238.06;2569255;30;138666;-38
2021/08/18 06:37:08;;;;;;;24.05;14.98;;;16.40;99.90;;;15.18;100.00;101237.34;2569132;30;137711;-39
2021/08/18 06:39:39;;;;;;;24.73;14.27;;;16.40;99.90;;;15.19;100.00;101249.19;2568464;30;138521;-38
2021/08/18 06:42:08;;;;;;;26.02;14.98;;;16.40;99.90;;;15.27;100.00;101246.09;2567628;30;138297;-39
2021/08/18 06:44:35;;;;;;;23.33;14.52;;;16.40;99.90;;;15.32;100.00;101246.25;2566793;30;139745;-39
2021/08/18 06:47:05;;;;;;;25.00;14.45;;;16.50;99.90;;;15.38;100.00;101250.81;2569441;30;137537;-38
2021/08/18 06:49:34;;;;;;;24.77;15.07;;;16.60;99.90;;;15.51;100.00;101251.69;2568613;30;139212;-39
2021/08/18 06:52:02;;;;;;;25.70;14.90;;;16.60;99.90;;;15.60;100.00;101247.50;2566433;30;137910;-39
2021/08/18 06:54:30;;;;;;;28.10;15.55;;;16.70;99.90;;;15.68;100.00;101249.94;2565771;30;139709;-40
2021/08/18 06:56:58;;;;;;;24.05;14.60;;;16.80;99.90;;;15.76;99.82;101248.72;2569897;30;137968;-38
2021/08/18 06:59:26;;;;;;;23.17;14.70;;;16.90;99.90;;;15.82;99.59;101252.44;2568328;30;138405;-39
2021/08/18 07:01:53;;;;;;;28.42;15.32;;;16.90;99.90;;;15.91;99.33;101251.06;2567730;30;136863;-39
2021/08/18 07:04:21;;;;;;;;;;;17.00;99.90;;;15.98;98.44;101256.44;2567940;30;137472;-39
2021/08/18 07:06:49;;;;;;;23.77;15.02;;;17.00;99.90;;;16.02;98.57;101251.31;2568887;30;137482;-39
2021/08/18 07:09:16;;;;;;;26.88;16.30;;;17.10;99.90;;;16.11;96.98;101252.63;2568092;30;138647;-39
2021/08/18 07:11:44;;;;;;;26.30;15.57;;;17.20;99.90;;;16.13;95.84;101253.22;2570514;30;136995;-38
2021/08/18 07:14:11;;;;;;;25.65;14.82;;;17.30;99.90;;;16.19;94.87;101246.78;2568459;30;138581;-38
2021/08/18 07:16:39;;;;;;;25.63;15.38;;;17.30;99.90;;;16.24;96.00;101257.03;2568761;30;137418;-39
2021/08/18 07:19:07;;;;;;;25.20;16.08;;;17.40;99.90;;;16.30;94.73;101252.50;2568826;30;138211;-39
2021/08/18 07:21:34;;;;;;;27.05;16.30;;;17.40;99.90;;;16.32;94.88;101259.44;2569953;30;137253;-39
2021/08/18 07:24:02;;;;;;;;;;;17.40;99.90;;;16.35;94.93;101253.47;2567063;30;138223;-38
2021/08/18 07:26:30;;;;;;;26.80;16.15;;;17.50;99.90;;;16.43;95.37;101252.22;2569959;30;137789;-38
2021/08/18 07:28:59;;;;;;;26.42;16.90;;;17.50;99.90;;;16.55;95.65;101254.97;2568859;30;138247;-39
2021/08/18 07:31:27;;;;;;;25.92;16.33;;;17.60;99.90;;;16.62;95.19;101260.34;2566685;30;137701;-39
2021/08/18 07:33:55;;;;;;;28.50;16.63;;;17.70;99.90;;;16.65;92.84;101259.84;2569288;30;139157;-38
2021/08/18 07:36:23;;;;;;;23.35;15.43;;;17.70;99.90;;;16.73;93.51;101255.91;2569014;30;137675;-39
2021/08/18 07:38:51;;;;;;;23.15;15.13;;;17.80;99.90;;;16.74;91.22;101249.31;2568038;30;139040;-40
2021/08/18 07:41:22;;;;;;;;;;;17.80;99.90;;;16.86;92.33;101250.13;2568834;30;138166;-39
2021/08/18 07:43:50;;;;;;;23.30;15.45;;;17.90;99.90;;;16.93;91.12;101247.19;2564891;30;139354;-39
2021/08/18 07:46:18;;;;;;;25.65;16.40;;;18.00;99.90;;;16.97;90.57;101252.00;2570210;30;137025;-39
2021/08/18 07:48:45;;;;;;;;;;;18.00;99.90;;;17.06;90.70;101254.38;2566972;30;138937;-39
2021/08/18 07:51:13;;;;;;;23.70;14.73;;;18.10;99.90;;;17.16;91.58;101250.97;2570752;30;137182;-39
2021/08/18 07:53:42;;;;;;;24.38;15.98;;;18.10;99.90;;;17.25;90.26;101250.34;2568061;30;137307;-39
2021/08/18 07:56:09;;;;;;;21.92;15.13;;;18.20;99.90;;;17.33;89.51;101257.38;2568047;30;137600;-39
2021/08/18 07:58:37;;;;;;;24.27;15.80;;;18.30;99.90;;;17.39;88.58;101250.06;2568401;30;139362;-39
2021/08/18 08:01:04;;;;;;;27.42;15.93;;;18.40;99.90;;;17.47;88.14;101251.53;2569161;30;136883;-39
2021/08/18 08:03:33;;;;;;;24.35;14.65;;;18.50;99.90;;;17.58;89.14;101256.16;2569222;30;138067;-39
2021/08/18 08:06:01;;;;;;;21.65;15.07;;;18.50;99.90;;;17.65;88.18;101259.59;2568004;30;136893;-39
2021/08/18 08:08:28;;;;;;;20.90;14.45;;;18.60;99.90;;;17.77;88.22;101256.75;2567767;30;137138;-39
2021/08/18 08:10:56;;;;;;;;;;;18.70;99.90;;;17.78;87.92;101265.88;2570116;30;137533;-39
2021/08/18 08:13:23;;;;;;;22.15;15.43;;;18.70;99.90;;;17.81;87.17;101265.38;2569279;30;139069;-39
2021/08/18 08:15:51;;;;;;;22.10;14.63;;;18.80;99.90;;;17.82;86.13;101261.53;2569263;30;137956;-39
2021/08/18 08:18:18;;;;;;;22.73;14.73;;;18.90;99.90;;;17.81;86.64;101262.63;2567443;30;138982;-39
2021/08/18 08:20:46;;;;;;;22.30;14.43;;;18.80;99.90;;;17.82;85.45;101267.06;2569033;30;136908;-39
2021/08/18 08:23:14;;;;;;;20.40;14.25;;;18.90;99.90;;;17.82;84.38;101264.28;2568031;30;138238;-39
2021/08/18 08:25:42;;;;;;;22.58;14.85;;;18.90;99.90;;;17.87;84.78;101267.13;2567066;30;137588;-39
2021/08/18 08:28:10;;;;;;;;;;;18.90;99.90;;;17.83;84.08;101265.97;2568522;30;138269;-40
2021/08/18 08:30:37;;;;;;;19.15;13.35;;;19.00;99.90;;;17.76;84.46;101263.38;2568755;30;137112;-39
2021/08/18 08:33:07;;;;;;;19.92;13.40;;;18.90;99.90;;;17.69;83.94;101266.28;2568398;30;137532;-39
2021/08/18 08:35:35;;;;;;;;;;;18.80;99.90;;;17.68;85.18;101264.59;2568019;30;137641;-39
2021/08/18 08:38:02;;;;;;;18.95;12.68;;;18.80;99.90;;;17.68;86.00;101264.59;2566806;30;137767;-39
2021/08/18 08:40:30;;;;;;;21.35;13.30;;;18.70;99.90;;;17.65;85.94;101265.13;2569861;30;137867;-39
2021/08/18 08:42:59;;;;;;;18.50;12.75;;;18.70;99.90;;;17.69;87.65;101265.47;2573629;30;140371;-41
2021/08/18 08:45:28;;;;;;;18.42;12.18;;;18.70;99.90;;;17.75;87.09;101263.59;2566580;30;136788;-40
2021/08/18 08:47:56;;;;;;;19.15;12.57;;;18.80;99.90;;;17.73;87.42;101261.13;2568799;30;138622;-43
2021/08/18 08:50:25;;;;;;;18.30;13.07;;;18.80;99.90;;;17.71;86.65;101260.53;2567684;30;138173;-40
2021/08/18 08:52:52;;;;;;;18.02;12.88;;;18.80;99.90;;;17.71;85.51;101263.28;2568042;30;138830;-43
2021/08/18 08:55:20;;;;;;;19.20;12.63;;;18.80;99.90;;;17.80;86.38;101267.28;2568039;30;136856;-43
2021/08/18 08:57:52;;;;;;;16.80;11.70;;;18.80;99.90;;;17.85;85.28;101266.56;2568452;30;139207;-40
2021/08/18 09:00:21;;;;;;;16.45;11.57;;;18.90;99.90;;;17.88;84.33;101265.19;2567678;30;138392;-40
2021/08/18 09:03:08;;;;;;;15.45;11.48;;;18.90;99.90;;;17.95;84.72;101268.66;2567662;30;138901;-41
2021/08/18 09:05:37;;;;;;;16.40;10.88;;;18.90;99.90;;;17.97;84.23;101274.75;2566827;30;137589;-40
2021/08/18 09:08:11;;;;;;;16.23;11.77;;;19.00;99.90;;;17.98;83.53;101271.72;2567519;30;137402;-41
2021/08/18 09:10:39;;;;;;;14.43;10.52;;;19.00;99.90;;;17.98;84.23;101277.25;2566492;30;137529;-40
2021/08/18 09:13:15;;;;;;;14.25;10.73;;;19.00;99.90;;;17.98;84.77;101274.47;2567726;30;138451;-40
2021/08/18 09:16:03;;;;;;;14.57;10.00;;;19.10;99.90;;;18.03;84.54;101275.69;2566934;30;137683;-40
2021/08/18 09:18:53;;;;;;;11.85;8.80;;;19.00;99.90;;;18.08;82.60;101268.31;2568206;30;138315;-41
2021/08/18 09:21:38;;;;;;;11.23;8.23;;;19.10;99.90;;;18.23;82.79;101276.00;2569135;30;137557;-41
2021/08/18 09:24:11;;;;;;;8.70;6.88;;;19.20;99.90;;;18.40;81.19;101272.38;2567723;30;137373;-42
2021/08/18 09:26:48;;;;;;;9.07;6.75;;;19.40;99.90;;;18.53;81.96;101277.53;2566061;38;136730;-41
2021/08/18 09:29:48;;;;;;;9.93;7.07;;;19.50;99.90;;;18.69;80.22;101266.69;2568294;30;138155;-40
2021/08/18 09:32:32;;;;;;;8.60;6.47;;;19.70;99.90;;;18.83;79.83;101267.13;2566374;30;138255;-40
2021/08/18 09:35:11;;;;;;;8.77;6.35;;;19.80;99.90;;;18.91;81.58;101280.50;2567511;30;138262;-41
2021/08/18 09:37:43;;;;;;;7.65;5.65;;;19.80;99.90;;;18.86;77.90;101274.09;2569071;30;137295;-41
2021/08/18 09:40:16;;;;;;;7.60;5.80;;;19.80;99.90;;;18.89;80.68;101281.88;2568425;30;138348;-41
2021/08/18 09:42:44;;;;;;;7.88;5.90;;;19.90;99.90;;;18.80;78.84;101279.53;2566186;30;138477;-41
2021/08/18 09:45:32;;;;;;;7.47;5.22;;;19.80;99.90;;;18.74;78.97;101277.81;2567000;30;138461;-41
2021/08/18 09:48:16;;;;;;;7.50;5.20;;;19.80;99.90;;;18.78;78.66;101272.59;2564782;30;137760;-40
2021/08/18 09:51:10;;;;;;;7.63;5.32;;;19.80;99.90;;;18.75;76.49;101270.34;2565710;30;138209;-41
2021/08/18 09:53:41;;;;;;;7.93;4.97;;;19.80;99.90;;;18.83;77.49;101279.03;2568879;30;137630;-41
2021/08/18 09:56:13;;;;;;;6.05;4.50;;;19.80;99.90;;;19.00;79.14;101282.84;2567815;30;138258;-40
2021/08/18 09:58:57;;;;;;;6.85;5.03;;;19.90;99.90;;;19.03;78.35;101282.34;2568079;30;137372;-40
2021/08/18 10:01:25;;;;;;;6.35;4.78;;;20.00;99.90;;;18.94;77.41;101279.16;2567741;30;137354;-41
2021/08/18 10:03:53;;;;;;;6.47;4.53;;;20.00;99.90;;;19.09;77.70;101273.81;2568316;30;136984;-41